createdAt,value
2024-03-09T00:00:29.507Z,6.53
2024-03-09T00:02:59.454Z,6.60
2024-03-09T00:05:26.523Z,6.90
2024-03-09T00:07:59.401Z,6.78
2024-03-09T00:10:28.739Z,5.75
2024-03-09T00:12:57.016Z,6.60
2024-03-09T00:15:25.433Z,6.78
2024-03-09T00:17:55.466Z,6.80
2024-03-09T00:20:29.430Z,6.57
2024-03-09T00:22:59.806Z,6.35
2024-03-09T00:25:30.609Z,6.55
2024-03-09T00:27:58.499Z,5.60
2024-03-09T00:30:36.434Z,5.40
2024-03-09T00:33:08.073Z,7.00
2024-03-09T00:35:36.856Z,6.43
2024-03-09T00:38:05.855Z,6.85
2024-03-09T00:40:33.515Z,5.82
2024-03-09T00:43:07.338Z,6.15
2024-03-09T00:45:35.622Z,6.25
2024-03-09T00:48:05.035Z,6.65
2024-03-09T00:50:32.930Z,5.45
2024-03-09T00:53:00.108Z,5.60
2024-03-09T00:55:27.311Z,5.50
2024-03-09T00:57:55.548Z,5.75
2024-03-09T01:00:25.728Z,6.13
2024-03-09T01:02:53.599Z,5.90
2024-03-09T01:05:23.813Z,5.50
2024-03-09T01:07:51.912Z,5.47
2024-03-09T01:10:19.210Z,5.60
2024-03-09T01:12:46.634Z,5.85
2024-03-09T01:15:15.096Z,5.60
2024-03-09T01:17:42.425Z,5.50
2024-03-09T01:20:10.440Z,5.93
2024-03-09T01:22:38.547Z,5.40
2024-03-09T01:25:09.193Z,5.50
2024-03-09T01:27:37.130Z,5.22
2024-03-09T01:30:06.632Z,5.20
2024-03-09T01:32:34.012Z,5.68
2024-03-09T01:35:01.388Z,5.20
2024-03-09T01:37:28.460Z,5.63
2024-03-09T01:39:55.740Z,5.55
2024-03-09T01:42:23.140Z,5.28
2024-03-09T01:44:51.581Z,5.60
2024-03-09T01:47:30.659Z,6.10
2024-03-09T01:49:58.967Z,5.80
2024-03-09T01:52:34.233Z,6.43
2024-03-09T01:55:07.663Z,5.32
2024-03-09T01:57:35.315Z,6.90
2024-03-09T02:00:03.389Z,5.82
2024-03-09T02:02:31.955Z,6.22
2024-03-09T02:05:01.559Z,6.95
2024-03-09T02:07:28.678Z,6.30
2024-03-09T02:09:56.250Z,6.00
2024-03-09T02:12:24.570Z,6.03
2024-03-09T02:14:51.793Z,5.82
2024-03-09T02:17:18.773Z,5.68
2024-03-09T02:19:45.684Z,6.05
2024-03-09T02:22:15.750Z,6.05
2024-03-09T02:24:43.907Z,5.72
2024-03-09T02:27:11.696Z,5.65
2024-03-09T02:29:41.673Z,6.70
2024-03-09T02:32:09.146Z,5.05
2024-03-09T02:34:36.703Z,5.47
2024-03-09T02:37:04.586Z,5.55
2024-03-09T02:39:32.370Z,4.70
2024-03-09T02:42:00.427Z,5.85
2024-03-09T02:44:28.640Z,5.60
2024-03-09T02:46:56.171Z,5.18
2024-03-09T02:49:23.468Z,5.43
2024-03-09T02:51:50.487Z,4.95
2024-03-09T02:54:18.066Z,5.38
2024-03-09T02:56:45.021Z,5.55
2024-03-09T02:59:11.964Z,5.28
2024-03-09T03:01:39.118Z,4.80
2024-03-09T03:04:06.116Z,5.75
2024-03-09T03:06:37.426Z,4.97
2024-03-09T03:09:24.043Z,5.15
2024-03-09T03:11:53.288Z,5.00
2024-03-09T03:14:21.557Z,5.00
2024-03-09T03:16:49.061Z,5.00
2024-03-09T03:19:15.996Z,4.82
2024-03-09T03:21:42.881Z,5.25
2024-03-09T03:24:10.992Z,5.05
2024-03-09T03:26:40.162Z,5.32
2024-03-09T03:29:07.293Z,5.28
2024-03-09T03:31:34.464Z,5.45
2024-03-09T03:34:03.031Z,5.55
2024-03-09T03:36:31.237Z,5.00
2024-03-09T03:38:58.169Z,5.43
2024-03-09T03:41:25.238Z,5.05
2024-03-09T03:43:52.647Z,5.32
2024-03-09T03:46:19.860Z,5.78
2024-03-09T03:48:47.743Z,5.72
2024-03-09T03:51:16.843Z,5.63
2024-03-09T03:53:45.834Z,5.50
2024-03-09T03:56:13.763Z,5.53
2024-03-09T03:58:46.198Z,5.22
2024-03-09T04:01:13.345Z,5.25
2024-03-09T04:03:40.395Z,4.97
2024-03-09T04:06:08.824Z,5.93
2024-03-09T04:08:36.436Z,5.55
2024-03-09T04:11:07.298Z,5.32
2024-03-09T04:13:34.573Z,5.68
2024-03-09T04:16:05.116Z,5.88
2024-03-09T04:18:33.208Z,5.00
2024-03-09T04:21:03.161Z,6.20
2024-03-09T04:23:30.404Z,5.32
2024-03-09T04:25:57.601Z,4.85
2024-03-09T04:28:29.323Z,5.72
2024-03-09T04:30:59.570Z,5.28
2024-03-09T04:33:29.693Z,4.88
2024-03-09T04:35:58.527Z,5.35
2024-03-09T04:38:27.323Z,5.22
2024-03-09T04:40:54.538Z,5.32
2024-03-09T04:43:21.528Z,6.07
2024-03-09T04:45:52.134Z,5.63
2024-03-09T04:48:19.365Z,5.55
2024-03-09T04:50:49.867Z,5.25
2024-03-09T04:53:18.568Z,5.63
2024-03-09T04:55:50.682Z,4.80
2024-03-09T04:58:19.950Z,5.15
2024-03-09T05:00:47.497Z,5.65
2024-03-09T05:03:16.011Z,4.85
2024-03-09T05:05:44.679Z,5.82
2024-03-09T05:08:12.425Z,5.47
2024-03-09T05:10:39.807Z,4.90
2024-03-09T05:13:08.792Z,4.57
2024-03-09T05:15:37.233Z,4.78
2024-03-09T05:18:10.022Z,4.93
2024-03-09T05:20:37.986Z,4.57
2024-03-09T05:23:11.536Z,4.68
2024-03-09T05:25:41.854Z,4.78
2024-03-09T05:28:14.321Z,4.40
2024-03-09T05:30:43.098Z,4.57
2024-03-09T05:33:10.636Z,4.72
2024-03-09T05:35:38.007Z,4.78
2024-03-09T05:38:06.439Z,4.78
2024-03-09T05:40:36.086Z,4.57
2024-03-09T05:43:08.625Z,4.30
2024-03-09T05:45:37.790Z,3.72
2024-03-09T05:48:05.338Z,4.18
2024-03-09T05:50:33.560Z,4.93
2024-03-09T05:53:02.211Z,5.03
2024-03-09T05:55:30.214Z,4.85
2024-03-09T05:57:58.405Z,4.53
2024-03-09T06:00:31.489Z,4.68
2024-03-09T06:03:03.750Z,4.82
2024-03-09T06:05:32.477Z,5.90
2024-03-09T06:08:00.795Z,4.95
2024-03-09T06:10:29.430Z,4.35
2024-03-09T06:12:56.530Z,5.53
2024-03-09T06:15:25.111Z,4.53
2024-03-09T06:17:55.672Z,4.57
2024-03-09T06:20:28.075Z,4.30
2024-03-09T06:22:56.490Z,5.15
2024-03-09T06:25:25.358Z,3.95
2024-03-09T06:27:57.971Z,7.25
2024-03-09T06:30:29.546Z,5.43
2024-03-09T06:33:01.246Z,4.60
2024-03-09T06:35:29.847Z,4.32
2024-03-09T06:38:09.616Z,5.47
2024-03-09T06:40:42.804Z,4.65
2024-03-09T06:43:12.059Z,4.45
2024-03-09T06:45:40.935Z,4.53
2024-03-09T06:48:09.057Z,4.32
2024-03-09T06:50:38.023Z,3.75
2024-03-09T06:53:05.548Z,3.92
2024-03-09T06:55:33.001Z,3.28
2024-03-09T06:58:04.205Z,2.90
2024-03-09T07:00:36.641Z,2.88
2024-03-09T07:03:06.613Z,2.58
2024-03-09T07:05:38.672Z,3.08
2024-03-09T07:08:08.381Z,2.17
2024-03-09T07:10:37.486Z,2.47
2024-03-09T07:13:06.046Z,2.90
2024-03-09T07:15:33.080Z,2.47
2024-03-09T07:18:00.941Z,2.25
2024-03-09T07:20:29.930Z,2.72
2024-03-09T07:22:57.843Z,2.35
2024-03-09T07:25:28.109Z,2.90
2024-03-09T07:27:57.802Z,2.45
2024-03-09T07:30:26.028Z,2.53
2024-03-09T07:32:55.875Z,2.55
2024-03-09T07:35:29.818Z,2.75
2024-03-09T07:38:00.873Z,2.85
2024-03-09T07:40:38.242Z,3.15
2024-03-09T07:43:07.083Z,2.95
2024-03-09T07:45:35.125Z,3.20
2024-03-09T07:48:04.864Z,3.60
2024-03-09T07:50:34.231Z,3.78
2024-03-09T07:53:02.063Z,3.63
2024-03-09T07:55:30.190Z,3.75
2024-03-09T07:58:09.741Z,4.32
2024-03-09T08:00:46.057Z,3.67
2024-03-09T08:03:14.545Z,4.05
2024-03-09T08:05:42.891Z,3.95
2024-03-09T08:08:14.423Z,5.05
2024-03-09T08:10:49.441Z,4.07
2024-03-09T08:13:18.790Z,4.78
2024-03-09T08:15:46.861Z,4.13
2024-03-09T08:18:14.103Z,4.40
2024-03-09T08:20:41.238Z,4.65
2024-03-09T08:23:08.519Z,4.22
2024-03-09T08:25:37.455Z,4.07
2024-03-09T08:28:05.292Z,6.32
2024-03-09T08:30:32.838Z,4.97
2024-03-09T08:33:00.568Z,5.15
2024-03-09T08:35:33.167Z,5.30
2024-03-09T08:38:00.748Z,5.07
2024-03-09T08:40:28.000Z,5.50
2024-03-09T08:42:56.267Z,4.72
2024-03-09T08:45:25.670Z,5.78
2024-03-09T08:47:53.972Z,5.40
2024-03-09T08:50:23.165Z,5.50
2024-03-09T08:52:51.075Z,6.15
2024-03-09T08:55:20.202Z,6.55
2024-03-09T08:57:50.752Z,6.50
2024-03-09T09:00:26.555Z,5.32
2024-03-09T09:02:58.464Z,6.60
2024-03-09T09:05:28.883Z,6.18
2024-03-09T09:07:57.179Z,7.32
2024-03-09T09:10:26.891Z,5.13
2024-03-09T09:12:55.666Z,4.53
2024-03-09T09:15:25.840Z,6.30
2024-03-09T09:17:53.228Z,5.18
2024-03-09T09:20:21.264Z,7.63
2024-03-09T09:22:49.231Z,5.70
2024-03-09T09:25:18.375Z,5.47
2024-03-09T09:27:45.862Z,5.78
2024-03-09T09:30:13.701Z,5.40
2024-03-09T09:32:45.094Z,6.28
2024-03-09T09:35:13.901Z,6.13
2024-03-09T09:37:41.324Z,7.43
2024-03-09T09:40:10.361Z,6.05
2024-03-09T09:42:37.495Z,6.53
2024-03-09T09:45:06.063Z,5.85
2024-03-09T09:47:34.577Z,6.13
2024-03-09T09:50:02.547Z,5.65
2024-03-09T09:52:31.894Z,5.43
2024-03-09T09:55:03.718Z,6.93
2024-03-09T09:57:32.543Z,6.35
2024-03-09T09:59:59.743Z,6.25
2024-03-09T10:02:26.864Z,6.70
2024-03-09T10:04:55.600Z,6.60
2024-03-09T10:07:23.217Z,7.13
2024-03-09T10:09:50.913Z,6.40
2024-03-09T10:12:24.669Z,4.50
2024-03-09T10:14:53.137Z,6.43
2024-03-09T10:17:23.933Z,5.68
2024-03-09T10:19:51.507Z,5.72
2024-03-09T10:22:18.776Z,5.78
2024-03-09T10:24:54.302Z,6.63
2024-03-09T10:27:22.705Z,6.53
2024-03-09T10:29:49.846Z,6.40
2024-03-09T10:32:19.427Z,5.68
2024-03-09T10:34:46.873Z,4.97
2024-03-09T10:37:19.349Z,5.78
2024-03-09T10:39:46.626Z,5.25
2024-03-09T10:42:18.177Z,6.22
2024-03-09T10:44:45.765Z,5.00
2024-03-09T10:47:16.010Z,5.25
2024-03-09T10:49:46.884Z,5.88
2024-03-09T10:52:17.880Z,4.53
2024-03-09T10:55:03.068Z,5.88
2024-03-09T10:57:30.973Z,6.03
2024-03-09T10:59:59.148Z,4.55
2024-03-09T11:02:26.694Z,5.30
2024-03-09T11:04:57.072Z,6.07
2024-03-09T11:07:24.611Z,5.78
2024-03-09T11:09:53.548Z,5.07
2024-03-09T11:12:22.154Z,5.00
2024-03-09T11:14:51.615Z,6.57
2024-03-09T11:17:25.574Z,5.47
2024-03-09T11:20:01.241Z,4.32
2024-03-09T11:22:47.262Z,6.13
2024-03-09T11:25:44.741Z,5.82
2024-03-09T11:28:12.526Z,5.90
2024-03-09T11:30:58.550Z,6.53
2024-03-09T11:33:29.567Z,5.75
2024-03-09T11:35:58.379Z,5.95
2024-03-09T11:38:29.229Z,5.20
2024-03-09T11:40:56.241Z,6.55
2024-03-09T11:43:23.284Z,7.40
2024-03-09T11:45:50.386Z,5.97
2024-03-09T11:48:18.004Z,7.10
2024-03-09T11:50:45.045Z,6.95
2024-03-09T11:53:12.507Z,5.45
2024-03-09T11:55:39.667Z,6.32
2024-03-09T11:58:10.499Z,7.13
2024-03-09T12:00:37.483Z,6.22
2024-03-09T12:03:22.405Z,6.65
2024-03-09T12:08:16.567Z,8.38
2024-03-09T12:10:44.124Z,7.45
2024-03-09T12:13:11.214Z,6.20
2024-03-09T12:15:42.345Z,6.85
2024-03-09T12:18:13.346Z,8.00
2024-03-09T12:20:42.243Z,7.10
2024-03-09T12:23:12.431Z,7.40
2024-03-09T12:25:45.928Z,6.22
2024-03-09T12:28:17.232Z,7.43
2024-03-09T12:30:52.011Z,6.13
2024-03-09T12:33:19.100Z,7.22
2024-03-09T12:35:47.351Z,7.05
2024-03-09T12:38:16.145Z,6.28
2024-03-09T12:40:46.572Z,7.95
2024-03-09T12:43:15.310Z,8.85
2024-03-09T12:45:43.011Z,7.07
2024-03-09T12:48:10.329Z,6.88
2024-03-09T12:50:37.584Z,6.45
2024-03-09T12:53:05.926Z,7.07
2024-03-09T12:55:34.768Z,5.63
2024-03-09T12:58:01.917Z,6.22
2024-03-09T13:00:33.665Z,6.55
2024-03-09T13:03:02.553Z,7.03
2024-03-09T13:05:29.746Z,6.85
2024-03-09T13:07:58.218Z,6.88
2024-03-09T13:10:25.931Z,6.78
2024-03-09T13:12:53.448Z,7.63
2024-03-09T13:15:21.875Z,6.47
2024-03-09T13:17:52.497Z,7.22
2024-03-09T13:20:21.555Z,7.28
2024-03-09T13:22:49.123Z,8.05
2024-03-09T13:25:17.583Z,6.97
2024-03-09T13:27:44.595Z,8.15
2024-03-09T13:30:27.100Z,8.63
2024-03-09T13:32:56.570Z,7.57
2024-03-09T13:35:24.254Z,9.00
2024-03-09T13:37:51.422Z,7.70
2024-03-09T13:40:26.799Z,6.50
2024-03-09T13:42:58.111Z,7.97
2024-03-09T13:45:26.775Z,7.20
2024-03-09T13:48:07.168Z,7.85
2024-03-09T13:50:35.984Z,6.82
2024-03-09T13:53:07.531Z,8.23
2024-03-09T13:55:35.780Z,7.63
2024-03-09T13:58:03.939Z,8.95
2024-03-09T14:00:31.207Z,7.28
2024-03-09T14:03:00.487Z,7.45
2024-03-09T14:05:28.261Z,7.68
2024-03-09T14:07:59.696Z,6.93
2024-03-09T14:10:39.620Z,7.68
2024-03-09T14:13:10.251Z,8.60
2024-03-09T14:15:39.061Z,8.40
2024-03-09T14:18:12.937Z,8.13
2024-03-09T14:20:40.441Z,6.70
2024-03-09T14:23:08.037Z,6.95
2024-03-09T14:25:35.349Z,6.05
2024-03-09T14:28:07.350Z,7.75
2024-03-09T14:30:35.716Z,6.82
2024-03-09T14:33:02.933Z,7.10
2024-03-09T14:35:33.859Z,7.80
2024-03-09T14:38:02.497Z,7.00
2024-03-09T14:40:35.775Z,5.53
2024-03-09T14:43:04.979Z,3.88
2024-03-09T14:45:37.068Z,2.40
2024-03-09T14:48:11.683Z,2.80
2024-03-09T14:53:19.160Z,2.58
2024-03-09T14:55:47.116Z,2.30
2024-03-09T14:58:14.352Z,3.22
2024-03-09T15:00:44.492Z,2.80
2024-03-09T15:03:16.247Z,3.15
2024-03-09T15:05:43.376Z,3.00
2024-03-09T15:08:13.183Z,3.15
2024-03-09T15:10:41.148Z,3.65
2024-03-09T15:13:08.138Z,3.20
2024-03-09T15:15:41.945Z,3.08
2024-03-09T15:18:12.216Z,2.63
2024-03-09T15:20:43.001Z,2.22
2024-03-09T15:23:12.904Z,1.95
2024-03-09T15:25:43.563Z,1.98
2024-03-09T15:28:18.049Z,2.08
2024-03-09T15:30:54.047Z,1.95
2024-03-09T15:33:25.085Z,2.17
2024-03-09T15:35:53.168Z,2.35
2024-03-09T15:38:22.740Z,2.03
2024-03-09T15:40:50.772Z,2.78
2024-03-09T15:43:17.772Z,2.28
2024-03-09T15:45:44.902Z,1.98
2024-03-09T15:48:11.973Z,2.15
2024-03-09T15:50:41.552Z,2.20
2024-03-09T15:53:09.302Z,2.80
2024-03-09T15:55:36.734Z,2.40
2024-03-09T15:58:10.274Z,2.60
2024-03-09T16:00:38.188Z,2.25
2024-03-09T16:03:05.474Z,2.75
2024-03-09T16:05:33.020Z,2.90
2024-03-09T16:08:03.392Z,3.30
2024-03-09T16:10:34.138Z,2.70
2024-03-09T16:13:02.438Z,3.10
2024-03-09T16:15:32.861Z,3.10
2024-03-09T16:18:02.463Z,3.20
2024-03-09T16:20:31.882Z,3.50
2024-03-09T16:23:03.391Z,3.40
2024-03-09T16:25:33.955Z,3.00
2024-03-09T16:28:12.521Z,3.10
2024-03-09T16:30:44.668Z,3.00
2024-03-09T16:33:15.531Z,2.17
2024-03-09T16:35:49.685Z,2.33
2024-03-09T16:38:24.415Z,2.20
2024-03-09T16:40:56.863Z,1.80
2024-03-09T16:43:34.562Z,2.25
2024-03-09T16:46:07.308Z,2.03
2024-03-09T16:48:38.540Z,2.08
2024-03-09T16:51:10.034Z,3.17
2024-03-09T16:53:41.276Z,2.90
2024-03-09T16:56:11.015Z,2.80
2024-03-09T16:58:40.758Z,2.42
2024-03-09T17:01:08.917Z,1.70
2024-03-09T17:03:36.602Z,1.77
2024-03-09T17:06:04.378Z,2.28
2024-03-09T17:08:31.843Z,2.20
2024-03-09T17:10:59.562Z,2.28
2024-03-09T17:13:27.205Z,2.67
2024-03-09T17:15:54.213Z,1.95
2024-03-09T17:18:22.663Z,2.22
2024-03-09T17:20:54.102Z,1.67
2024-03-09T17:23:22.859Z,1.80
2024-03-09T17:25:51.076Z,2.15
2024-03-09T17:28:22.473Z,2.50
2024-03-09T17:30:50.740Z,2.80
2024-03-09T17:33:19.014Z,2.33
2024-03-09T17:35:46.916Z,2.15
2024-03-09T17:38:14.044Z,2.45
2024-03-09T17:40:48.546Z,2.03
2024-03-09T17:43:16.756Z,2.08
2024-03-09T17:45:46.464Z,2.47
2024-03-09T17:48:14.908Z,2.20
2024-03-09T17:50:43.541Z,2.17
2024-03-09T17:53:11.354Z,2.08
2024-03-09T17:55:39.171Z,2.17
2024-03-09T17:58:10.327Z,2.17
2024-03-09T18:00:40.076Z,2.10
2024-03-09T18:03:11.205Z,2.75
2024-03-09T18:05:38.929Z,2.50
2024-03-09T18:08:11.214Z,3.10
2024-03-09T18:10:43.197Z,3.40
2024-03-09T18:13:13.063Z,3.35
2024-03-09T18:15:46.922Z,2.70
2024-03-09T18:18:15.317Z,3.10
2024-03-09T18:20:44.602Z,3.40
2024-03-09T18:23:13.257Z,3.53
2024-03-09T18:25:53.129Z,3.60
2024-03-09T18:28:20.363Z,3.67
2024-03-09T18:30:47.514Z,3.15
2024-03-09T18:33:15.136Z,3.83
2024-03-09T18:35:43.343Z,3.95
2024-03-09T18:38:15.435Z,3.88
2024-03-09T18:40:42.832Z,3.42
2024-03-09T18:43:10.354Z,3.53
2024-03-09T18:45:37.638Z,4.25
2024-03-09T18:48:05.158Z,3.95
2024-03-09T18:50:32.427Z,4.13
2024-03-09T18:52:59.748Z,3.83
2024-03-09T18:55:29.179Z,5.53
2024-03-09T18:57:56.558Z,4.28
2024-03-09T19:00:31.573Z,3.78
2024-03-09T19:03:00.357Z,3.88
2024-03-09T19:05:28.421Z,1.88
2024-03-09T19:07:57.228Z,2.05
2024-03-09T19:10:25.049Z,2.75
2024-03-09T19:12:52.933Z,3.28
2024-03-09T19:15:24.332Z,2.38
2024-03-09T19:17:52.444Z,2.40
2024-03-09T19:20:25.881Z,2.53
2024-03-09T19:22:54.472Z,2.28
2024-03-09T19:25:22.049Z,2.15
2024-03-09T19:27:49.616Z,2.08
2024-03-09T19:30:19.049Z,2.10
2024-03-09T19:32:47.741Z,2.03
2024-03-09T19:35:23.287Z,1.60
2024-03-09T19:37:51.156Z,2.25
2024-03-09T19:40:19.052Z,1.55
2024-03-09T19:42:47.792Z,2.72
2024-03-09T19:45:19.054Z,2.15
2024-03-09T19:47:50.317Z,2.40
2024-03-09T19:50:18.090Z,1.92
2024-03-09T19:52:48.399Z,2.05
2024-03-09T19:55:16.876Z,2.40
2024-03-09T19:57:44.571Z,2.47
2024-03-09T20:00:17.699Z,2.53
2024-03-09T20:02:45.598Z,2.92
2024-03-09T20:05:13.029Z,2.13
2024-03-09T20:07:42.181Z,3.47
2024-03-09T20:10:16.485Z,2.60
2024-03-09T20:12:50.022Z,3.20
2024-03-09T20:15:19.057Z,2.40
2024-03-09T20:17:51.939Z,3.03
2024-03-09T20:20:20.133Z,2.88
2024-03-09T20:22:48.519Z,3.17
2024-03-09T20:25:18.276Z,2.55
2024-03-09T20:27:45.468Z,2.70
2024-03-09T20:30:14.450Z,3.08
2024-03-09T20:32:42.290Z,3.35
2024-03-09T20:35:12.368Z,2.20
2024-03-09T20:37:39.691Z,2.42
2024-03-09T20:40:14.520Z,2.60
2024-03-09T20:42:44.765Z,2.15
2024-03-09T20:45:13.536Z,2.25
2024-03-09T20:47:40.473Z,2.40
2024-03-09T20:50:12.392Z,2.30
2024-03-09T20:52:39.766Z,2.45
2024-03-09T20:55:08.913Z,2.63
2024-03-09T20:57:36.977Z,1.90
2024-03-09T21:00:11.507Z,1.98
2024-03-09T21:05:09.170Z,1.48
2024-03-09T21:07:36.261Z,1.83
2024-03-09T21:10:04.329Z,1.35
2024-03-09T21:12:31.376Z,1.33
2024-03-09T21:14:59.642Z,1.65
2024-03-09T21:17:27.345Z,1.77
2024-03-09T21:19:54.983Z,1.58
2024-03-09T21:22:22.693Z,1.98
2024-03-09T21:24:49.676Z,1.65
2024-03-09T21:27:17.305Z,1.58
2024-03-09T21:29:44.434Z,2.08
2024-03-09T21:32:12.094Z,2.25
2024-03-09T21:34:39.271Z,2.00
2024-03-09T21:37:06.284Z,2.28
2024-03-09T21:39:36.894Z,2.20
2024-03-09T21:42:07.333Z,2.85
2024-03-09T21:44:34.336Z,3.30
2024-03-09T21:47:01.442Z,3.40
2024-03-09T21:49:28.446Z,3.00
2024-03-09T21:51:55.521Z,3.38
2024-03-09T21:54:23.157Z,3.45
2024-03-09T21:56:50.051Z,3.78
2024-03-09T21:59:17.151Z,4.07
2024-03-09T22:01:44.927Z,3.08
2024-03-09T22:04:12.062Z,2.72
2024-03-09T22:06:39.060Z,3.35
2024-03-09T22:09:09.422Z,2.80
2024-03-09T22:11:48.585Z,2.47
2024-03-09T22:14:15.913Z,2.42
2024-03-09T22:16:42.906Z,3.20
2024-03-09T22:19:09.841Z,3.50
2024-03-09T22:21:36.971Z,3.40
2024-03-09T22:24:04.314Z,2.75
2024-03-09T22:26:31.478Z,2.65
2024-03-09T22:28:59.405Z,2.75
2024-03-09T22:31:26.940Z,2.15
2024-03-09T22:33:54.874Z,2.38
2024-03-09T22:36:22.287Z,2.90
2024-03-09T22:38:49.554Z,2.60
2024-03-09T22:41:17.045Z,2.92
2024-03-09T22:43:44.116Z,2.63
2024-03-09T22:46:12.447Z,2.80
2024-03-09T22:48:39.557Z,3.17
2024-03-09T22:51:07.751Z,3.10
2024-03-09T22:53:35.652Z,2.90
2024-03-09T22:56:04.428Z,2.90
2024-03-09T22:58:32.262Z,2.55
2024-03-09T23:01:19.604Z,2.78
2024-03-09T23:03:46.682Z,2.45
2024-03-09T23:06:15.775Z,2.10
2024-03-09T23:08:43.118Z,2.72
2024-03-09T23:11:10.405Z,2.30
2024-03-09T23:13:37.480Z,3.13
2024-03-09T23:16:04.801Z,3.40
2024-03-09T23:18:35.296Z,2.10
2024-03-09T23:21:02.854Z,2.40
2024-03-09T23:23:31.321Z,2.35
2024-03-09T23:25:59.462Z,3.15
2024-03-09T23:28:26.993Z,2.75
2024-03-09T23:30:54.016Z,2.63
2024-03-09T23:33:21.066Z,2.95
2024-03-09T23:35:48.003Z,2.58
2024-03-09T23:38:15.015Z,3.78
2024-03-09T23:40:42.009Z,3.85
2024-03-09T23:43:11.395Z,3.65
2024-03-09T23:45:39.868Z,2.80
2024-03-09T23:48:07.381Z,2.75
2024-03-09T23:50:34.481Z,2.90
2024-03-09T23:53:01.795Z,2.65
2024-03-09T23:55:29.949Z,3.38
2024-03-09T23:57:56.930Z,3.53
